• Join FlightAware (Why Join?)
  • Login
  • US Flag 
12:26PM EST


 

Airport Tracker/Info


-or-


 

Live Flight TrackerFlight Track Log ✈ N531RQ ✈ 14-May-2013 ✈ KMKE - KGRB

Flight Track Log - Related Links

Times and Time Zones

All times are in EDT time to prevent confusion due to time zone crossing. See the N531RQ flight status page for this flight to view local times or setup timezone preferences in your user account.

Time Position Orientation Groundspeed Altitude Reporting Facility
EDT Latitude Longitude Course Direction KTS MPH feet Rate Location/Type
04:50PM 42.9500 -87.8833 26° Northeast 163 188 1,900  Level KMKE
04:51PM 43.0000 -87.8500 26° Northeast 216 249 6,400 3,643 Climbing KMKE
04:52PM 43.0292 -87.8203 37° Northeast 211 243 8,700 2,056 Climbing Chicago Center
04:53PM 43.0989 -87.8172 North 252 290 10,100 629 Climbing Chicago Center
04:54PM 43.1794 -87.8000 North 253 291 10,000  Descending Chicago Center
04:55PM 43.2556 -87.7919 North 275 316 10,100 48 Climbing Chicago Center
04:56PM 43.3311 -87.8156 347° North 280 322 10,100  Level Chicago Center
04:57PM 43.4119 -87.8375 349° North 293 337 10,100  Level Chicago Center
04:58PM 43.5064 -87.8625 349° North 296 341 10,100  Level Chicago Center
04:59PM 43.5883 -87.8844 349° North 300 345 10,100 -51 Level Chicago Center
05:00PM 43.6567 -87.9028 349° North 303 349 10,000 -51 Descending Minneapolis Center
05:01PM 43.7417 -87.9261 349° North 311 358 10,000  Level Minneapolis Center
05:02PM 43.8417 -87.9533 349° North 314 361 10,000  Level Minneapolis Center
05:03PM 43.9283 -87.9764 349° North 317 365 10,000 -194 Level Minneapolis Center
05:04PM 44.0106 -88.0044 346° North 307 353 9,600 -726 Descending Minneapolis Center
05:05PM 44.0775 -88.0428 338° Northwest 265 305 8,500 -1,008 Descending Minneapolis Center
05:06PM 44.1336 -88.0725 339° North 221 254 7,500 -1,403 Descending Minneapolis Center
05:07PM 44.2025 -88.0997 344° North 219 252 5,600 -1,694 Descending Minneapolis Center
05:08PM 44.2636 -88.1028 358° North 220 253 4,000 -1,152 Descending Minneapolis Center
05:09PM 44.3250 -88.1086 356° North 220 253 3,200 -774 Descending Minneapolis Center
05:10PM 44.3892 -88.1175 354° North 228 262 2,400 -532 Descending Minneapolis Center
05:11PM 44.4572 -88.1250 356° North 226 260 2,100 -290 Descending Minneapolis Center
05:13PM 44.4833 -88.1167 347° North  Level FlightAware Approximate
05:20PM 44.4846 -88.1297 347° North  Level Estimated